Time;durP1;ratioP1;P1;durP2;ratioP2;P2;SDS_P1;SDS_P2;PMS_P1;PMS_P2;Temp;Humidity;BMP_temperature;BMP_pressure;BME280_temperature;BME280_humidity;BME280_pressure;Samples;Min_cycle;Max_cycle;Signal;HPM_P1;HPM_P2
2022/07/26 00:01:18;;;;;;;16.80;3.72;;;;;;;;;;5013591;28;20544;-74
2022/07/26 00:03:45;;;;;;;15.73;4.10;;;;;;;;;;5032970;28;20054;-74
2022/07/26 00:06:11;;;;;;;15.88;3.95;;;;;;;;;;5037285;28;20116;-75
2022/07/26 00:08:38;;;;;;;15.18;3.85;;;;;;;;;;5012920;28;20086;-74
2022/07/26 00:11:04;;;;;;;12.57;2.97;;;;;;;;;;5013423;28;20497;-75
2022/07/26 00:13:32;;;;;;;15.23;3.78;;;;;;;;;;5015566;28;20062;-74
2022/07/26 00:15:59;;;;;;;14.32;3.85;;;;;;;;;;5028049;28;20153;-75
2022/07/26 00:18:25;;;;;;;17.20;4.38;;;;;;;;;;4998456;28;20156;-74
2022/07/26 00:20:52;;;;;;;14.88;3.65;;;;;;;;;;5014926;28;20082;-75
2022/07/26 00:23:21;;;;;;;19.27;4.47;;;;;;;;;;5026887;28;20058;-75
2022/07/26 00:25:47;;;;;;;17.42;3.97;;;;;;;;;;5027532;28;20054;-75
2022/07/26 00:28:13;;;;;;;16.65;3.83;;;;;;;;;;5026369;28;20053;-75
2022/07/26 00:30:40;;;;;;;16.83;3.60;;;;;;;;;;5033719;28;20058;-74
2022/07/26 00:33:06;;;;;;;14.95;3.40;;;;;;;;;;5032524;28;20100;-74
2022/07/26 00:35:33;;;;;;;15.10;3.92;;;;;;;;;;5031255;28;20057;-74
2022/07/26 00:38:00;;;;;;;15.43;3.70;;;;;;;;;;5035173;28;20065;-74
2022/07/26 00:40:26;;;;;;;15.27;3.60;;;;;;;;;;5015275;28;20046;-74
2022/07/26 00:42:52;;;;;;;16.00;4.03;;;;;;;;;;5031191;28;20061;-74
2022/07/26 00:45:19;;;;;;;16.15;4.38;;;;;;;;;;5038328;28;20094;-74
2022/07/26 00:47:45;;;;;;;12.20;3.58;;;;;;;;;;5032764;28;20058;-74
2022/07/26 00:50:13;;;;;;;15.70;4.55;;;;;;;;;;5019766;28;20490;-74
2022/07/26 00:52:47;;;;;;;13.55;3.47;;;;;;;;;;5028942;28;20058;-74
2022/07/26 00:55:14;;;;;;;21.33;3.78;;;;;;;;;;5028799;28;20061;-75
2022/07/26 00:57:40;;;;;;;18.60;4.50;;;;;;;;;;5015594;28;20528;-76
2022/07/26 01:00:08;;;;;;;12.45;3.38;;;;;;;;;;5027966;28;20054;-76
2022/07/26 01:02:34;;;;;;;21.30;4.40;;;;;;;;;;5025699;28;20109;-76
2022/07/26 01:05:01;;;;;;;18.63;4.30;;;;;;;;;;5014946;28;20058;-75
2022/07/26 01:07:28;;;;;;;20.58;4.10;;;;;;;;;;5029601;28;20058;-75
2022/07/26 01:09:54;;;;;;;23.65;4.43;;;;;;;;;;5024783;28;20054;-76
2022/07/26 01:12:21;;;;;;;15.05;3.58;;;;;;;;;;5025603;28;20057;-75
2022/07/26 01:14:47;;;;;;;18.67;3.50;;;;;;;;;;5027108;28;20057;-75
2022/07/26 01:17:13;;;;;;;19.70;3.85;;;;;;;;;;5021234;28;20054;-76
2022/07/26 01:19:40;;;;;;;19.40;4.55;;;;;;;;;;5031816;28;20054;-76
2022/07/26 01:22:07;;;;;;;18.67;4.03;;;;;;;;;;5024733;28;20501;-75
2022/07/26 01:24:39;;;;;;;17.52;3.65;;;;;;;;;;5017747;28;20058;-75
2022/07/26 01:27:06;;;;;;;17.67;3.55;;;;;;;;;;5015621;28;20074;-76
2022/07/26 01:29:33;;;;;;;14.95;4.03;;;;;;;;;;5015755;28;21983;-75
2022/07/26 01:32:03;;;;;;;14.35;3.10;;;;;;;;;;5016361;28;20060;-75
2022/07/26 01:34:30;;;;;;;11.95;3.22;;;;;;;;;;5015862;28;20440;-75
2022/07/26 01:36:56;;;;;;;15.75;3.85;;;;;;;;;;5022541;28;20140;-75
2022/07/26 01:39:22;;;;;;;15.25;3.90;;;;;;;;;;5033062;28;20500;-74
2022/07/26 01:41:49;;;;;;;11.80;3.40;;;;;;;;;;5014163;28;20492;-75
2022/07/26 01:44:15;;;;;;;13.02;3.47;;;;;;;;;;5014379;28;20564;-76
2022/07/26 01:46:42;;;;;;;16.88;2.92;;;;;;;;;;5025674;28;20050;-75
2022/07/26 01:49:08;;;;;;;15.40;3.60;;;;;;;;;;5037282;28;20077;-75
2022/07/26 01:51:35;;;;;;;9.93;2.55;;;;;;;;;;5053018;28;20081;-76
2022/07/26 01:54:01;;;;;;;12.05;2.80;;;;;;;;;;5055604;28;20030;-75
2022/07/26 01:56:28;;;;;;;10.75;3.10;;;;;;;;;;5054597;28;20045;-74
2022/07/26 01:58:54;;;;;;;7.78;2.67;;;;;;;;;;5037121;28;20050;-75
2022/07/26 02:01:21;;;;;;;11.05;2.65;;;;;;;;;;5044526;28;20129;-75
2022/07/26 02:04:57;;;;;;;7.30;2.88;;;;;;;;;;5046674;28;20094;-75
2022/07/26 02:06:54;;;;;;;9.20;2.67;;;;;;;;;;5028232;28;20054;-75
2022/07/26 02:09:20;;;;;;;6.57;2.28;;;;;;;;;;5012487;28;20061;-75
2022/07/26 02:11:48;;;;;;;11.80;2.50;;;;;;;;;;5029179;28;20054;-76
2022/07/26 02:14:14;;;;;;;14.00;3.15;;;;;;;;;;5012284;28;20057;-76
2022/07/26 02:16:58;;;;;;;9.48;2.78;;;;;;;;;;5015739;28;20042;-76
2022/07/26 02:19:26;;;;;;;9.35;2.78;;;;;;;;;;5015021;28;20567;-76
2022/07/26 02:21:52;;;;;;;5.55;2.50;;;;;;;;;;5016965;28;20055;-75
2022/07/26 02:24:19;;;;;;;6.68;2.00;;;;;;;;;;5022845;28;20568;-75
2022/07/26 02:26:45;;;;;;;7.22;2.33;;;;;;;;;;5014346;28;20054;-75
2022/07/26 02:29:11;;;;;;;9.48;2.17;;;;;;;;;;5032839;28;20105;-76
2022/07/26 02:31:38;;;;;;;9.40;2.58;;;;;;;;;;5030453;28;20563;-76
2022/07/26 02:34:04;;;;;;;7.30;1.90;;;;;;;;;;5024761;28;20058;-75
2022/07/26 02:36:31;;;;;;;3.83;1.63;;;;;;;;;;5032092;28;20049;-75
2022/07/26 02:38:57;;;;;;;4.35;1.75;;;;;;;;;;5031081;28;20061;-74
2022/07/26 02:41:24;;;;;;;3.85;1.73;;;;;;;;;;5032075;28;20116;-75
2022/07/26 02:43:50;;;;;;;5.32;1.95;;;;;;;;;;5027598;28;20054;-75
2022/07/26 02:46:17;;;;;;;2.30;1.63;;;;;;;;;;5015783;28;20129;-74
2022/07/26 02:48:43;;;;;;;3.83;1.70;;;;;;;;;;5040207;28;20057;-74
2022/07/26 02:51:09;;;;;;;5.97;2.35;;;;;;;;;;5022526;28;20058;-75
2022/07/26 02:53:36;;;;;;;5.10;2.13;;;;;;;;;;5015381;28;20038;-75
2022/07/26 02:56:02;;;;;;;7.07;2.00;;;;;;;;;;5033088;28;20487;-75
2022/07/26 02:58:29;;;;;;;8.20;1.60;;;;;;;;;;5021018;28;20417;-76
2022/07/26 03:00:55;;;;;;;5.65;1.80;;;;;;;;;;5025172;28;20545;-76
2022/07/26 03:03:22;;;;;;;4.32;1.38;;;;;;;;;;5021324;28;20053;-76
2022/07/26 03:05:48;;;;;;;5.97;2.20;;;;;;;;;;5029240;28;20140;-75
2022/07/26 03:08:15;;;;;;;6.95;2.33;;;;;;;;;;5030687;28;20125;-75
2022/07/26 03:10:41;;;;;;;9.93;1.85;;;;;;;;;;5029988;28;20507;-74
2022/07/26 03:13:07;;;;;;;7.85;2.20;;;;;;;;;;5032837;28;20556;-73
2022/07/26 03:15:33;;;;;;;8.88;2.00;;;;;;;;;;5025608;28;20521;-74
2022/07/26 03:18:00;;;;;;;4.50;1.63;;;;;;;;;;5030284;28;20054;-73
2022/07/26 03:20:27;;;;;;;8.98;2.05;;;;;;;;;;5031842;28;20056;-74
2022/07/26 03:22:53;;;;;;;5.95;1.80;;;;;;;;;;5013982;28;20064;-75
2022/07/26 03:25:20;;;;;;;5.20;1.85;;;;;;;;;;5023393;28;20057;-74
2022/07/26 03:27:46;;;;;;;6.95;2.13;;;;;;;;;;5033718;28;20058;-76
2022/07/26 03:30:12;;;;;;;8.32;1.90;;;;;;;;;;5033288;28;20054;-76
2022/07/26 03:32:39;;;;;;;2.95;1.77;;;;;;;;;;5033156;28;20133;-76
2022/07/26 03:35:06;;;;;;;5.90;1.60;;;;;;;;;;5042242;28;20056;-76
2022/07/26 03:37:33;;;;;;;8.88;1.98;;;;;;;;;;5040083;28;20084;-74
2022/07/26 03:40:12;;;;;;;5.63;1.77;;;;;;;;;;5030160;28;20050;-75
2022/07/26 03:42:38;;;;;;;7.75;1.98;;;;;;;;;;5018240;28;20053;-75
2022/07/26 03:45:05;;;;;;;6.25;1.95;;;;;;;;;;5029656;28;20109;-75
2022/07/26 03:47:31;;;;;;;2.83;1.80;;;;;;;;;;5035948;28;20137;-74
2022/07/26 03:49:57;;;;;;;12.30;2.15;;;;;;;;;;5016176;28;20987;-74
2022/07/26 03:52:24;;;;;;;6.88;1.98;;;;;;;;;;5020987;28;20612;-76
2022/07/26 03:54:50;;;;;;;8.80;2.42;;;;;;;;;;5034031;28;20065;-76
2022/07/26 03:57:16;;;;;;;5.90;1.77;;;;;;;;;;5035848;28;20112;-76
2022/07/26 03:59:43;;;;;;;4.03;1.67;;;;;;;;;;5034481;28;20136;-75
2022/07/26 04:02:09;;;;;;;5.95;2.10;;;;;;;;;;5034441;28;20092;-75
2022/07/26 04:04:36;;;;;;;9.85;2.22;;;;;;;;;;5033298;28;20050;-75
2022/07/26 04:07:02;;;;;;;4.60;2.00;;;;;;;;;;5019621;28;20984;-75
2022/07/26 04:09:29;;;;;;;9.40;2.22;;;;;;;;;;5023084;28;20054;-75
2022/07/26 04:11:55;;;;;;;7.88;2.00;;;;;;;;;;5019298;28;20058;-75
2022/07/26 04:14:21;;;;;;;7.95;2.35;;;;;;;;;;5035060;28;20136;-75
2022/07/26 04:16:48;;;;;;;5.80;1.83;;;;;;;;;;5030924;28;20501;-75
2022/07/26 04:19:14;;;;;;;7.55;2.00;;;;;;;;;;5026534;28;20057;-76
2022/07/26 04:21:40;;;;;;;6.68;2.42;;;;;;;;;;5033328;28;20081;-76
2022/07/26 04:24:07;;;;;;;6.55;1.92;;;;;;;;;;5017601;28;20053;-75
2022/07/26 04:26:34;;;;;;;5.32;1.85;;;;;;;;;;5031796;28;20046;-75
2022/07/26 04:29:00;;;;;;;4.63;2.05;;;;;;;;;;5032570;28;20054;-75
2022/07/26 04:31:26;;;;;;;6.63;2.00;;;;;;;;;;5016000;28;20060;-74
2022/07/26 04:34:01;;;;;;;4.10;1.55;;;;;;;;;;5015377;28;20049;-75
2022/07/26 04:36:27;;;;;;;5.10;1.80;;;;;;;;;;5025539;28;20051;-75
2022/07/26 04:38:54;;;;;;;10.57;2.08;;;;;;;;;;5029837;28;20061;-75
2022/07/26 04:41:20;;;;;;;4.90;2.20;;;;;;;;;;5015201;28;20138;-75
2022/07/26 04:43:46;;;;;;;6.45;2.03;;;;;;;;;;5033348;28;20064;-75
2022/07/26 04:46:13;;;;;;;8.93;1.88;;;;;;;;;;5024422;28;20049;-75
2022/07/26 04:48:39;;;;;;;4.10;1.45;;;;;;;;;;5032582;28;20055;-74
2022/07/26 04:51:05;;;;;;;8.70;2.45;;;;;;;;;;5033839;28;20080;-75
2022/07/26 04:53:32;;;;;;;7.07;2.10;;;;;;;;;;5034048;28;20052;-76
2022/07/26 04:55:58;;;;;;;4.25;1.58;;;;;;;;;;5037266;28;20066;-74
2022/07/26 04:58:24;;;;;;;6.25;1.75;;;;;;;;;;5034418;28;20057;-74
2022/07/26 05:00:51;;;;;;;4.25;2.15;;;;;;;;;;5025651;28;20132;-74
2022/07/26 05:03:37;;;;;;;5.00;1.77;;;;;;;;;;5032300;28;20519;-75
2022/07/26 05:06:04;;;;;;;8.45;2.25;;;;;;;;;;5032281;28;20421;-75
2022/07/26 05:08:30;;;;;;;8.07;2.15;;;;;;;;;;5044078;28;20081;-75
2022/07/26 05:10:56;;;;;;;3.85;1.73;;;;;;;;;;5031726;28;20089;-75
2022/07/26 05:13:24;;;;;;;8.93;2.30;;;;;;;;;;5023446;28;20548;-75
2022/07/26 05:15:56;;;;;;;6.05;1.73;;;;;;;;;;5030834;28;20077;-74
2022/07/26 05:18:22;;;;;;;9.48;2.65;;;;;;;;;;5016506;28;20140;-72
2022/07/26 05:20:50;;;;;;;7.72;2.08;;;;;;;;;;5029121;28;20668;-69
2022/07/26 05:23:16;;;;;;;5.85;2.70;;;;;;;;;;5032544;28;20056;-68
2022/07/26 05:25:42;;;;;;;8.85;3.47;;;;;;;;;;5032900;28;20145;-68
2022/07/26 05:28:09;;;;;;;6.55;3.35;;;;;;;;;;5016137;28;20149;-68
2022/07/26 05:30:35;;;;;;;5.72;2.85;;;;;;;;;;5027365;28;20054;-68
2022/07/26 05:33:02;;;;;;;6.40;2.97;;;;;;;;;;5017666;28;20062;-67
2022/07/26 05:35:28;;;;;;;6.10;2.53;;;;;;;;;;5015996;28;20182;-69
2022/07/26 05:37:55;;;;;;;4.63;2.20;;;;;;;;;;5031040;28;20097;-69
2022/07/26 05:40:21;;;;;;;6.28;2.33;;;;;;;;;;5022650;28;20054;-68
2022/07/26 05:42:47;;;;;;;5.90;2.10;;;;;;;;;;5015629;28;20153;-69
2022/07/26 05:45:14;;;;;;;4.72;2.10;;;;;;;;;;5021629;28;20093;-68
2022/07/26 05:47:40;;;;;;;6.05;1.88;;;;;;;;;;5030391;28;20057;-69
2022/07/26 05:50:07;;;;;;;4.68;1.75;;;;;;;;;;5023135;28;20054;-68
2022/07/26 05:52:33;;;;;;;4.63;2.05;;;;;;;;;;5018868;28;20050;-70
2022/07/26 05:54:59;;;;;;;5.25;2.03;;;;;;;;;;5024863;28;20056;-69
2022/07/26 05:57:26;;;;;;;5.90;2.45;;;;;;;;;;5027381;28;20085;-68
2022/07/26 05:59:53;;;;;;;6.80;2.42;;;;;;;;;;5030919;28;20085;-68
2022/07/26 06:02:21;;;;;;;5.80;2.40;;;;;;;;;;5032391;28;20064;-68
2022/07/26 06:04:47;;;;;;;10.18;2.15;;;;;;;;;;5032285;28;20580;-68
2022/07/26 06:07:14;;;;;;;5.53;2.50;;;;;;;;;;5032183;28;20065;-67
2022/07/26 06:09:40;;;;;;;4.47;2.00;;;;;;;;;;5031978;28;20548;-67
2022/07/26 06:12:08;;;;;;;6.85;2.20;;;;;;;;;;5031687;28;20046;-66
2022/07/26 06:14:35;;;;;;;6.57;2.03;;;;;;;;;;5014335;28;20054;-67
2022/07/26 06:17:03;;;;;;;3.83;1.90;;;;;;;;;;5012250;28;20058;-66
2022/07/26 06:19:29;;;;;;;6.90;2.33;;;;;;;;;;5010873;28;20517;-65
2022/07/26 06:21:56;;;;;;;4.47;1.50;;;;;;;;;;5012971;28;20111;-66
2022/07/26 06:24:22;;;;;;;3.38;1.65;;;;;;;;;;5021468;28;20068;-65
2022/07/26 06:26:51;;;;;;;4.25;1.40;;;;;;;;;;5031490;28;20148;-65
2022/07/26 06:29:22;;;;;;;6.85;1.77;;;;;;;;;;5030713;28;20065;-66
2022/07/26 06:31:58;;;;;;;5.43;1.48;;;;;;;;;;5031657;28;20104;-65
2022/07/26 06:34:25;;;;;;;4.85;2.00;;;;;;;;;;5030787;28;20394;-64
2022/07/26 06:36:51;;;;;;;5.50;1.27;;;;;;;;;;5021255;28;20049;-65
2022/07/26 06:39:17;;;;;;;6.03;1.98;;;;;;;;;;5031855;28;20053;-65
2022/07/26 06:41:44;;;;;;;7.30;1.95;;;;;;;;;;5026949;28;20050;-67
2022/07/26 06:44:10;;;;;;;3.75;1.52;;;;;;;;;;5029356;28;20060;-67
2022/07/26 06:46:37;;;;;;;4.65;1.50;;;;;;;;;;5027885;28;20057;-65
2022/07/26 06:49:03;;;;;;;5.88;1.70;;;;;;;;;;5031275;28;20481;-65
2022/07/26 06:51:32;;;;;;;8.85;1.65;;;;;;;;;;5029563;28;20185;-66
2022/07/26 06:53:58;;;;;;;5.70;1.92;;;;;;;;;;5031201;28;20058;-66
2022/07/26 06:56:31;;;;;;;8.10;2.38;;;;;;;;;;5029653;28;20497;-65
2022/07/26 06:58:57;;;;;;;8.05;2.03;;;;;;;;;;5030850;28;20571;-66
2022/07/26 07:01:23;;;;;;;7.45;2.08;;;;;;;;;;5030831;28;20058;-66
2022/07/26 07:04:10;;;;;;;6.20;2.08;;;;;;;;;;5027916;28;20054;-66
2022/07/26 07:06:37;;;;;;;5.32;2.00;;;;;;;;;;5025658;28;20850;-67
2022/07/26 07:09:03;;;;;;;7.88;2.03;;;;;;;;;;5020497;28;20058;-67
2022/07/26 07:11:33;;;;;;;6.97;1.67;;;;;;;;;;5030701;28;20580;-65
2022/07/26 07:14:01;;;;;;;11.18;1.65;;;;;;;;;;5031067;28;20827;-67
2022/07/26 07:16:28;;;;;;;4.93;1.70;;;;;;;;;;5026907;28;20055;-67
2022/07/26 07:18:54;;;;;;;7.22;1.10;;;;;;;;;;5032157;28;20055;-67
2022/07/26 07:21:21;;;;;;;6.65;2.00;;;;;;;;;;5023160;28;20058;-67
2022/07/26 07:23:47;;;;;;;7.18;1.23;;;;;;;;;;5021426;28;20054;-66
2022/07/26 07:26:14;;;;;;;7.55;1.15;;;;;;;;;;5033915;28;20060;-66
2022/07/26 07:28:41;;;;;;;6.72;2.30;;;;;;;;;;5028519;28;20050;-65
2022/07/26 07:31:08;;;;;;;7.50;1.83;;;;;;;;;;5034556;28;20073;-66
2022/07/26 07:33:34;;;;;;;6.65;1.23;;;;;;;;;;5034668;28;20054;-67
2022/07/26 07:36:18;;;;;;;3.75;1.48;;;;;;;;;;5034206;28;20112;-66
2022/07/26 07:38:45;;;;;;;5.07;1.42;;;;;;;;;;5032013;28;20483;-65
2022/07/26 07:41:11;;;;;;;7.07;1.20;;;;;;;;;;5034257;28;20580;-65
2022/07/26 07:43:37;;;;;;;4.80;1.20;;;;;;;;;;5029432;28;20129;-67
2022/07/26 07:46:04;;;;;;;2.63;0.80;;;;;;;;;;5014547;28;20050;-64
2022/07/26 07:48:30;;;;;;;4.22;0.88;;;;;;;;;;5031175;28;20578;-64
2022/07/26 07:50:56;;;;;;;3.72;0.70;;;;;;;;;;5032525;28;20078;-65
2022/07/26 07:53:23;;;;;;;4.18;0.73;;;;;;;;;;5032869;28;20076;-66
2022/07/26 07:55:51;;;;;;;6.68;0.90;;;;;;;;;;5034414;28;20145;-71
2022/07/26 07:58:20;;;;;;;4.43;1.00;;;;;;;;;;5029231;28;20567;-72
2022/07/26 08:00:47;;;;;;;1.77;0.90;;;;;;;;;;5015030;28;20520;-73
2022/07/26 08:03:13;;;;;;;3.38;0.77;;;;;;;;;;5026063;28;20049;-71
2022/07/26 08:05:44;;;;;;;5.50;0.93;;;;;;;;;;5035151;28;20169;-71
2022/07/26 08:08:10;;;;;;;4.07;1.10;;;;;;;;;;5034740;28;20492;-72
2022/07/26 08:10:36;;;;;;;7.78;0.80;;;;;;;;;;5034661;28;20588;-72
2022/07/26 08:13:14;;;;;;;2.83;1.17;;;;;;;;;;5034899;28;20090;-72
2022/07/26 08:15:43;;;;;;;3.42;0.85;;;;;;;;;;5028775;28;20149;-72
2022/07/26 08:18:14;;;;;;;3.75;1.00;;;;;;;;;;5026223;28;20481;-73
2022/07/26 08:20:41;;;;;;;4.05;1.13;;;;;;;;;;5034856;28;20053;-72
2022/07/26 08:23:08;;;;;;;2.30;1.10;;;;;;;;;;5034120;28;20054;-74
2022/07/26 08:25:35;;;;;;;4.95;1.00;;;;;;;;;;5033892;28;20054;-72
2022/07/26 08:28:07;;;;;;;4.25;0.95;;;;;;;;;;5028950;28;20069;-72
2022/07/26 08:30:54;;;;;;;4.50;0.85;;;;;;;;;;5031257;28;20278;-73
2022/07/26 08:33:20;;;;;;;4.80;1.13;;;;;;;;;;5033379;28;20046;-72
2022/07/26 08:35:48;;;;;;;7.47;1.38;;;;;;;;;;5033207;28;20056;-72
2022/07/26 08:38:14;;;;;;;2.10;0.60;;;;;;;;;;5033288;28;20132;-72
2022/07/26 08:40:40;;;;;;;3.35;1.13;;;;;;;;;;5033138;28;20141;-72
2022/07/26 08:43:07;;;;;;;6.50;0.90;;;;;;;;;;5028732;28;20053;-73
2022/07/26 08:45:34;;;;;;;4.97;1.30;;;;;;;;;;5023137;28;20050;-72
2022/07/26 08:48:00;;;;;;;8.13;0.93;;;;;;;;;;5026290;28;20100;-73
2022/07/26 08:50:44;;;;;;;4.70;0.95;;;;;;;;;;5029062;28;20058;-73
2022/07/26 08:53:11;;;;;;;3.17;0.82;;;;;;;;;;5030951;28;20489;-72
2022/07/26 08:55:38;;;;;;;2.80;0.90;;;;;;;;;;5033165;28;20050;-72
2022/07/26 08:58:24;;;;;;;8.55;0.93;;;;;;;;;;5030064;28;21197;-73
2022/07/26 09:01:07;;;;;;;2.88;0.70;;;;;;;;;;5026968;28;20132;-73
2022/07/26 09:03:37;;;;;;;3.00;0.65;;;;;;;;;;5032193;28;20494;-73
2022/07/26 09:06:33;;;;;;;9.63;1.65;;;;;;;;;;5027833;28;20129;-73
2022/07/26 09:09:08;;;;;;;4.13;1.30;;;;;;;;;;4996099;28;20509;-71
2022/07/26 09:11:35;;;;;;;6.70;1.00;;;;;;;;;;5030516;28;20104;-74
2022/07/26 09:14:03;;;;;;;3.80;1.08;;;;;;;;;;5032281;28;20142;-72
2022/07/26 09:16:30;;;;;;;4.40;0.93;;;;;;;;;;5026501;28;20173;-74
2022/07/26 09:19:27;;;;;;;4.43;1.17;;;;;;;;;;5033145;28;20061;-74
2022/07/26 09:21:54;;;;;;;3.95;0.70;;;;;;;;;;5024004;28;20058;-73
2022/07/26 09:24:40;;;;;;;9.43;0.90;;;;;;;;;;5031054;28;20050;-73
2022/07/26 09:27:06;;;;;;;;;;;;;;;;;;5027714;28;20053;-74
2022/07/26 09:29:41;;;;;;;5.05;1.23;;;;;;;;;;5028402;28;42576;-74
2022/07/26 09:32:09;;;;;;;4.97;1.23;;;;;;;;;;5032346;28;20497;-73
2022/07/26 09:34:38;;;;;;;3.40;1.13;;;;;;;;;;5030362;28;20046;-75
2022/07/26 09:37:17;;;;;;;8.63;1.60;;;;;;;;;;5017066;28;20527;-75
2022/07/26 09:39:52;;;;;;;4.07;0.88;;;;;;;;;;5032167;28;20074;-76
2022/07/26 09:42:19;;;;;;;7.47;1.73;;;;;;;;;;5033404;28;20061;-76
2022/07/26 09:44:56;;;;;;;5.57;1.23;;;;;;;;;;5033181;28;20053;-76
2022/07/26 09:47:33;;;;;;;7.55;1.40;;;;;;;;;;5033062;28;20161;-76
2022/07/26 09:50:16;;;;;;;4.78;1.20;;;;;;;;;;5032415;28;20446;-76
2022/07/26 09:52:57;;;;;;;4.53;0.82;;;;;;;;;;5030011;28;20064;-75
2022/07/26 09:55:23;;;;;;;3.60;0.90;;;;;;;;;;5031732;28;20136;-73
2022/07/26 09:57:51;;;;;;;5.32;1.00;;;;;;;;;;5030567;28;20112;-75
2022/07/26 10:00:18;;;;;;;6.65;1.10;;;;;;;;;;5035379;28;20141;-75
2022/07/26 10:02:44;;;;;;;2.08;0.77;;;;;;;;;;5037164;28;20567;-74
2022/07/26 10:05:10;;;;;;;3.35;1.35;;;;;;;;;;5050435;28;20057;-74
2022/07/26 10:07:37;;;;;;;2.50;0.98;;;;;;;;;;5039847;28;20050;-72
2022/07/26 10:10:06;;;;;;;4.45;0.80;;;;;;;;;;5031404;28;20956;-75
2022/07/26 10:12:33;;;;;;;2.13;0.80;;;;;;;;;;5031084;28;20053;-70
2022/07/26 10:15:00;;;;;;;5.68;1.13;;;;;;;;;;5028096;28;20137;-70
2022/07/26 10:17:29;;;;;;;4.85;1.08;;;;;;;;;;5035334;28;20088;-68
2022/07/26 10:20:07;;;;;;;4.68;0.82;;;;;;;;;;5024419;28;20069;-76
2022/07/26 10:22:44;;;;;;;5.07;1.08;;;;;;;;;;5013359;28;20062;-74
2022/07/26 10:25:16;;;;;;;5.88;0.98;;;;;;;;;;5032130;28;20070;-74
2022/07/26 10:27:47;;;;;;;3.33;1.00;;;;;;;;;;5012434;28;20453;-74
2022/07/26 10:30:17;;;;;;;2.72;0.73;;;;;;;;;;5019377;28;20050;-76
2022/07/26 10:32:56;;;;;;;3.28;0.85;;;;;;;;;;5032525;28;20054;-75
2022/07/26 10:35:39;;;;;;;3.53;0.80;;;;;;;;;;5030737;28;20509;-71
2022/07/26 10:38:07;;;;;;;6.68;1.27;;;;;;;;;;5031907;28;20068;-75
2022/07/26 10:40:34;;;;;;;4.85;1.42;;;;;;;;;;5014403;28;20541;-73
2022/07/26 10:43:07;;;;;;;8.02;1.77;;;;;;;;;;5014116;28;20140;-74
2022/07/26 10:46:22;;;;;;;6.13;1.58;;;;;;;;;;5031162;28;20469;-76
2022/07/26 10:48:55;;;;;;;5.20;1.48;;;;;;;;;;5004071;28;21049;-76
2022/07/26 10:51:26;;;;;;;9.02;1.73;;;;;;;;;;5013541;28;20066;-75
2022/07/26 10:53:59;;;;;;;5.32;1.48;;;;;;;;;;5031069;28;20054;-75
2022/07/26 10:56:26;;;;;;;6.03;1.70;;;;;;;;;;5031337;28;20050;-75
2022/07/26 10:58:58;;;;;;;7.03;1.40;;;;;;;;;;5031310;28;20053;-75
2022/07/26 11:01:32;;;;;;;6.80;1.85;;;;;;;;;;5031566;28;20058;-76
2022/07/26 11:03:58;;;;;;;5.10;1.73;;;;;;;;;;5031765;28;20050;-77
2022/07/26 11:06:26;;;;;;;13.30;2.05;;;;;;;;;;5030471;28;20060;-76
2022/07/26 11:08:56;;;;;;;4.70;1.30;;;;;;;;;;5030397;28;20481;-74
2022/07/26 11:11:29;;;;;;;6.95;1.27;;;;;;;;;;5031855;28;20097;-77
2022/07/26 11:14:09;;;;;;;8.05;1.50;;;;;;;;;;5030745;28;20062;-77
2022/07/26 11:16:39;;;;;;;4.13;1.23;;;;;;;;;;5012079;28;20053;-78
2022/07/26 11:19:17;;;;;;;5.00;1.13;;;;;;;;;;5026042;28;20185;-75
2022/07/26 11:21:45;;;;;;;6.72;1.52;;;;;;;;;;5032006;28;20056;-76
2022/07/26 11:24:12;;;;;;;5.05;1.33;;;;;;;;;;5048934;28;20132;-76
2022/07/26 11:26:41;;;;;;;3.40;1.10;;;;;;;;;;5056863;28;20061;-76
2022/07/26 11:29:07;;;;;;;3.17;1.40;;;;;;;;;;5057686;28;20108;-78
2022/07/26 11:31:37;;;;;;;4.60;1.27;;;;;;;;;;5039315;28;20578;-76
2022/07/26 11:34:25;;;;;;;9.70;2.10;;;;;;;;;;5041551;28;20050;-77
2022/07/26 11:36:54;;;;;;;4.45;1.58;;;;;;;;;;5040230;28;20041;-77
2022/07/26 11:39:22;;;;;;;3.83;1.20;;;;;;;;;;5032932;28;20125;-77
2022/07/26 11:41:49;;;;;;;10.18;1.42;;;;;;;;;;5032423;28;20054;-76
2022/07/26 11:44:16;;;;;;;6.55;1.48;;;;;;;;;;5032085;28;20069;-78
2022/07/26 11:46:46;;;;;;;6.57;1.42;;;;;;;;;;5030781;28;20060;-78
2022/07/26 11:49:27;;;;;;;8.80;1.80;;;;;;;;;;5032486;28;20074;-78
2022/07/26 11:52:14;;;;;;;7.57;1.77;;;;;;;;;;5030783;28;20062;-74
2022/07/26 11:54:50;;;;;;;8.98;1.60;;;;;;;;;;5030653;28;20058;-74
2022/07/26 11:57:17;;;;;;;6.05;1.95;;;;;;;;;;5030797;28;20420;-76
2022/07/26 11:59:45;;;;;;;7.38;1.67;;;;;;;;;;5030954;28;21056;-76
2022/07/26 12:02:12;;;;;;;16.80;2.25;;;;;;;;;;5031438;28;20568;-77
2022/07/26 12:04:39;;;;;;;6.00;1.65;;;;;;;;;;5033627;28;20054;-77
2022/07/26 12:07:10;;;;;;;7.80;2.10;;;;;;;;;;5034165;28;20050;-77
2022/07/26 12:09:39;;;;;;;10.55;1.80;;;;;;;;;;5033852;28;20058;-73
2022/07/26 12:12:06;;;;;;;17.45;1.90;;;;;;;;;;5034910;28;20056;-79
2022/07/26 12:14:34;;;;;;;9.80;1.98;;;;;;;;;;5035823;28;20137;-78
2022/07/26 12:17:13;;;;;;;6.97;1.85;;;;;;;;;;5034245;28;20499;-77
2022/07/26 12:19:41;;;;;;;11.88;1.90;;;;;;;;;;5032942;28;20062;-79
2022/07/26 12:22:18;;;;;;;3.67;1.48;;;;;;;;;;5033682;28;20394;-79
2022/07/26 12:24:46;;;;;;;6.47;1.98;;;;;;;;;;5034907;28;20076;-76
2022/07/26 12:27:20;;;;;;;12.75;1.92;;;;;;;;;;5034748;28;20053;-76
2022/07/26 12:29:48;;;;;;;10.13;1.88;;;;;;;;;;5035687;28;20126;-79
2022/07/26 12:32:19;;;;;;;10.23;2.35;;;;;;;;;;5033034;28;20061;-79
2022/07/26 12:35:00;;;;;;;9.20;1.70;;;;;;;;;;5034300;28;20093;-77
2022/07/26 12:37:31;;;;;;;8.77;1.70;;;;;;;;;;5015104;28;20050;-77
2022/07/26 12:40:14;;;;;;;9.07;2.08;;;;;;;;;;5014420;28;20516;-74
2022/07/26 12:42:41;;;;;;;;;;;;;;;;;;5014866;28;20058;-75
2022/07/26 12:45:11;;;;;;;4.30;1.33;;;;;;;;;;5032671;28;47178;-76
2022/07/26 12:47:39;;;;;;;13.13;2.13;;;;;;;;;;5033479;28;20141;-76
2022/07/26 12:50:07;;;;;;;9.48;1.80;;;;;;;;;;5032754;28;20058;-76
2022/07/26 12:52:34;;;;;;;9.82;1.63;;;;;;;;;;5018858;28;20062;-77
2022/07/26 12:55:00;;;;;;;8.65;1.88;;;;;;;;;;5033209;28;20060;-77
2022/07/26 12:57:27;;;;;;;6.50;1.80;;;;;;;;;;5033364;28;20058;-75
2022/07/26 12:59:54;;;;;;;10.00;2.03;;;;;;;;;;5033734;28;20156;-77
2022/07/26 13:02:20;;;;;;;8.98;1.70;;;;;;;;;;5033898;28;20060;-77
2022/07/26 13:04:47;;;;;;;6.90;1.88;;;;;;;;;;5034349;28;20619;-76
2022/07/26 13:07:14;;;;;;;16.85;2.67;;;;;;;;;;5034133;28;20058;-77
2022/07/26 13:09:41;;;;;;;9.68;1.98;;;;;;;;;;5033609;28;20145;-74
2022/07/26 13:12:08;;;;;;;7.45;1.63;;;;;;;;;;5033173;28;20058;-76
2022/07/26 13:14:35;;;;;;;11.35;1.63;;;;;;;;;;5032171;28;20489;-76
2022/07/26 13:17:02;;;;;;;7.40;1.85;;;;;;;;;;5015877;28;20081;-79
2022/07/26 13:19:29;;;;;;;10.32;1.80;;;;;;;;;;5035091;28;20078;-76
2022/07/26 13:21:56;;;;;;;8.68;1.63;;;;;;;;;;5032219;28;20050;-75
2022/07/26 13:24:23;;;;;;;7.53;1.50;;;;;;;;;;5033290;28;20068;-76
2022/07/26 13:26:52;;;;;;;7.32;1.85;;;;;;;;;;5032909;28;20060;-77
2022/07/26 13:29:18;;;;;;;8.02;2.00;;;;;;;;;;5032676;28;20049;-78
2022/07/26 13:31:45;;;;;;;13.52;2.72;;;;;;;;;;5031648;28;20050;-77
2022/07/26 13:34:11;;;;;;;9.98;1.85;;;;;;;;;;5033556;28;20471;-78
2022/07/26 13:36:39;;;;;;;12.30;2.05;;;;;;;;;;5032301;28;20954;-75
2022/07/26 13:39:05;;;;;;;7.35;1.63;;;;;;;;;;5026199;28;20141;-75
2022/07/26 13:41:35;;;;;;;8.45;2.08;;;;;;;;;;5020039;28;20062;-73
2022/07/26 13:44:03;;;;;;;9.20;1.70;;;;;;;;;;5022534;28;20058;-74
2022/07/26 13:46:29;;;;;;;4.78;1.50;;;;;;;;;;5032755;28;20134;-74
2022/07/26 13:48:59;;;;;;;6.28;1.65;;;;;;;;;;5032431;28;20053;-77
2022/07/26 13:54:16;;;;;;;5.78;1.45;;;;;;;;;;5032635;28;20572;-76
2022/07/26 13:56:43;;;;;;;8.68;2.10;;;;;;;;;;5032084;28;20112;-76
2022/07/26 13:59:10;;;;;;;5.70;1.70;;;;;;;;;;5032972;28;20049;-75
2022/07/26 14:01:37;;;;;;;4.20;1.45;;;;;;;;;;5032535;28;20054;-72
2022/07/26 14:04:10;;;;;;;4.38;1.40;;;;;;;;;;5031714;28;20514;-74
2022/07/26 14:06:40;;;;;;;7.18;1.60;;;;;;;;;;5031759;28;20108;-76
2022/07/26 14:09:08;;;;;;;6.57;1.40;;;;;;;;;;5029634;28;20060;-73
2022/07/26 14:11:36;;;;;;;5.88;1.30;;;;;;;;;;5031834;28;20061;-72
2022/07/26 14:14:03;;;;;;;5.55;1.92;;;;;;;;;;5032507;28;20050;-73
2022/07/26 14:16:29;;;;;;;7.03;1.33;;;;;;;;;;5032346;28;20565;-75
2022/07/26 14:18:57;;;;;;;4.55;1.75;;;;;;;;;;5032078;28;20505;-75
2022/07/26 14:21:24;;;;;;;6.93;1.65;;;;;;;;;;5031524;28;20493;-76
2022/07/26 14:23:51;;;;;;;11.80;1.92;;;;;;;;;;5031099;28;20058;-75
2022/07/26 14:26:17;;;;;;;6.22;1.35;;;;;;;;;;5013725;28;20070;-78
2022/07/26 14:28:43;;;;;;;3.53;1.60;;;;;;;;;;5030384;28;20077;-79
2022/07/26 14:31:10;;;;;;;4.45;1.25;;;;;;;;;;5033667;28;20080;-78
2022/07/26 14:33:36;;;;;;;6.05;1.70;;;;;;;;;;5033372;28;20060;-80
2022/07/26 14:36:03;;;;;;;7.80;1.75;;;;;;;;;;5032540;28;20054;-80
2022/07/26 14:38:29;;;;;;;5.90;1.42;;;;;;;;;;5030295;28;20937;-78
2022/07/26 14:40:56;;;;;;;4.85;1.50;;;;;;;;;;5031503;28;20053;-77
2022/07/26 14:43:23;;;;;;;4.18;1.25;;;;;;;;;;5025163;28;20061;-78
2022/07/26 14:45:52;;;;;;;4.95;1.63;;;;;;;;;;5011483;28;20070;-76
2022/07/26 14:48:19;;;;;;;8.07;1.67;;;;;;;;;;5020524;28;20050;-73
2022/07/26 14:51:06;;;;;;;6.82;1.70;;;;;;;;;;5031719;28;20054;-74
2022/07/26 14:53:35;;;;;;;7.28;1.45;;;;;;;;;;5029495;28;20061;-73